Time;durP1;ratioP1;P1;durP2;ratioP2;P2;SDS_P1;SDS_P2;PMS_P1;PMS_P2;Temp;Humidity;BMP_temperature;BMP_pressure;BME280_temperature;BME280_humidity;BME280_pressure;Samples;Min_cycle;Max_cycle;Signal;HPM_P1;HPM_P2
2022/11/01 00:02:02;;;;;;;12.10;9.10;;;13.60;99.90;;;;;;6221566;23;20439;-82
2022/11/01 00:04:29;;;;;;;10.33;9.20;;;13.60;99.90;;;;;;6221933;23;20477;-81
2022/11/01 00:06:56;;;;;;;14.10;10.50;;;13.50;99.90;;;;;;6221946;23;20453;-82
2022/11/01 00:09:22;;;;;;;11.40;9.20;;;13.50;99.90;;;;;;6221665;23;20413;-82
2022/11/01 00:11:51;;;;;;;9.60;8.60;;;13.50;99.90;;;;;;6221836;23;20415;-82
2022/11/01 00:14:19;;;;;;;8.93;8.03;;;13.50;99.90;;;;;;6221151;23;20500;-81
2022/11/01 00:16:46;;;;;;;10.03;9.03;;;13.40;99.90;;;;;;6224345;23;20429;-81
2022/11/01 00:19:13;;;;;;;9.23;8.33;;;13.40;99.90;;;;;;6224638;23;20419;-82
2022/11/01 00:21:40;;;;;;;8.87;8.03;;;13.40;99.90;;;;;;6234611;23;20464;-82
2022/11/01 00:24:07;;;;;;;12.40;9.53;;;13.40;99.90;;;;;;6223768;23;20419;-82
2022/11/01 00:26:33;;;;;;;10.53;8.70;;;13.40;99.90;;;;;;6222979;23;20453;-81
2022/11/01 00:29:02;;;;;;;9.23;8.40;;;13.40;99.90;;;;;;6221934;23;20415;-81
2022/11/01 00:31:29;;;;;;;12.90;10.40;;;13.40;99.90;;;;;;6221491;23;20406;-82
2022/11/01 00:33:56;;;;;;;12.63;11.40;;;13.40;99.90;;;;;;6221003;23;20413;-81
2022/11/01 00:36:22;;;;;;;12.20;11.00;;;13.30;99.90;;;;;;6221934;23;20402;-82
2022/11/01 00:38:50;;;;;;;13.43;12.13;;;13.30;99.90;;;;;;6221126;23;20415;-81
2022/11/01 00:41:18;;;;;;;14.47;11.50;;;13.20;99.90;;;;;;6220782;23;20409;-81
2022/11/01 00:43:45;;;;;;;13.87;12.37;;;13.20;99.90;;;;;;6221323;23;20409;-82
2022/11/01 00:46:13;;;;;;;13.97;12.57;;;13.20;99.90;;;;;;6220955;23;20969;-82
2022/11/01 00:48:39;;;;;;;12.47;11.17;;;13.20;99.90;;;;;;6221970;23;20726;-83
2022/11/01 00:51:06;;;;;;;14.77;13.27;;;13.20;99.90;;;;;;6222550;23;20408;-82
2022/11/01 00:53:33;;;;;;;18.97;13.53;;;13.10;99.90;;;;;;6222632;23;20404;-81
2022/11/01 00:56:01;;;;;;;14.80;13.50;;;13.10;99.90;;;;;;6221973;23;20405;-83
2022/11/01 00:58:27;;;;;;;13.40;12.30;;;13.00;99.90;;;;;;6221425;23;20475;-83
2022/11/01 01:00:54;;;;;;;12.93;11.70;;;13.00;99.90;;;;;;6221805;23;20412;-83
2022/11/01 01:03:23;;;;;;;14.00;12.70;;;13.00;99.90;;;;;;6221905;23;20408;-82
2022/11/01 01:05:50;;;;;;;13.03;11.67;;;13.00;99.90;;;;;;6221359;23;20400;-82
2022/11/01 01:08:17;;;;;;;14.20;12.57;;;13.00;99.90;;;;;;6221488;23;20492;-82
2022/11/01 01:10:44;;;;;;;16.13;14.23;;;13.00;99.90;;;;;;6220873;23;20925;-82
2022/11/01 01:13:11;;;;;;;16.67;12.67;;;13.00;99.90;;;;;;6221647;23;20393;-83
2022/11/01 01:15:38;;;;;;;12.03;10.73;;;13.00;99.90;;;;;;6233504;23;20445;-82
2022/11/01 01:18:05;;;;;;;15.00;12.70;;;13.00;99.90;;;;;;6221723;23;20425;-83
2022/11/01 01:20:33;;;;;;;12.63;11.30;;;13.10;99.90;;;;;;6221779;23;20804;-83
2022/11/01 01:23:00;;;;;;;14.93;13.17;;;13.10;99.90;;;;;;6220890;23;20412;-82
2022/11/01 01:25:27;;;;;;;15.53;12.10;;;13.10;99.90;;;;;;6222099;23;20409;-83
2022/11/01 01:27:55;;;;;;;12.00;10.97;;;12.90;99.90;;;;;;6221575;23;20516;-82
2022/11/01 01:30:21;;;;;;;12.87;11.57;;;13.00;99.90;;;;;;6221069;23;20419;-83
2022/11/01 01:32:48;;;;;;;12.77;11.47;;;12.90;99.90;;;;;;6220719;23;20412;-82
2022/11/01 01:35:15;;;;;;;12.67;10.30;;;12.90;99.90;;;;;;6220901;23;20415;-83
2022/11/01 01:37:43;;;;;;;10.60;9.50;;;13.00;99.90;;;;;;6220919;23;20447;-83
2022/11/01 01:40:10;;;;;;;11.50;10.50;;;13.00;99.90;;;;;;6221873;23;20789;-82
2022/11/01 01:42:39;;;;;;;13.63;10.73;;;13.00;99.90;;;;;;6220680;23;20473;-83
2022/11/01 01:45:28;;;;;;;13.77;11.40;;;13.00;99.90;;;;;;6221641;23;20417;-82
2022/11/01 01:47:58;;;;;;;12.63;11.47;;;13.00;99.90;;;;;;6220754;23;20452;-81
2022/11/01 01:50:30;;;;;;;13.23;12.07;;;13.00;99.90;;;;;;6220896;23;20398;-83
2022/11/01 01:53:02;;;;;;;12.00;10.90;;;13.00;99.90;;;;;;6221473;23;20404;-82
2022/11/01 01:55:35;;;;;;;11.40;10.40;;;13.00;99.90;;;;;;6220471;23;20412;-82
2022/11/01 01:58:03;;;;;;;12.10;10.80;;;13.00;99.90;;;;;;6221080;23;21015;-82
2022/11/01 02:00:30;;;;;;;12.27;9.80;;;13.10;99.90;;;;;;6220896;23;20411;-83
2022/11/01 02:02:56;;;;;;;11.40;10.30;;;13.10;99.90;;;;;;6221165;23;20412;-83
2022/11/01 02:05:29;;;;;;;10.73;9.50;;;13.10;99.90;;;;;;6220608;23;20409;-82
2022/11/01 02:07:59;;;;;;;11.30;10.00;;;13.20;99.90;;;;;;6225612;23;20443;-80
2022/11/01 02:10:27;;;;;;;13.90;12.60;;;13.20;99.90;;;;;;6228305;23;20441;-82
2022/11/01 02:12:53;;;;;;;12.40;11.20;;;13.20;99.90;;;;;;6221680;23;20405;-82
2022/11/01 02:15:28;;;;;;;13.20;11.90;;;13.30;99.90;;;;;;6221243;23;20411;-83
2022/11/01 02:18:12;;;;;;;14.73;10.67;;;13.30;99.90;;;;;;6219833;23;20429;-83
2022/11/01 02:21:11;;;;;;;10.23;9.43;;;13.30;99.90;;;;;;6221444;23;20393;-83
2022/11/01 02:24:04;;;;;;;12.33;9.87;;;13.30;99.90;;;;;;6221335;23;20401;-82
2022/11/01 02:26:56;;;;;;;12.70;11.50;;;13.40;99.90;;;;;;6221020;23;20445;-83
2022/11/01 02:29:51;;;;;;;16.40;10.70;;;13.40;99.90;;;;;;6221096;23;20393;-82
2022/11/01 02:32:22;;;;;;;13.13;9.47;;;13.40;99.90;;;;;;6220586;23;20404;-82
2022/11/01 02:34:57;;;;;;;8.80;8.00;;;13.40;99.90;;;;;;6221270;23;20392;-83
2022/11/01 02:37:30;;;;;;;11.80;9.60;;;13.50;99.90;;;;;;6221418;23;20428;-82
2022/11/01 02:40:02;;;;;;;9.73;8.50;;;13.50;99.90;;;;;;6220796;23;20483;-82
2022/11/01 02:42:32;;;;;;;10.50;8.10;;;13.60;99.90;;;;;;6221207;23;20393;-82
2022/11/01 02:45:04;;;;;;;12.03;8.37;;;13.60;99.90;;;;;;6221041;23;20397;-82
2022/11/01 02:47:33;;;;;;;10.73;8.80;;;13.60;99.90;;;;;;6220725;23;20456;-83
2022/11/01 02:50:04;;;;;;;10.00;8.70;;;13.70;99.90;;;;;;6221028;23;20412;-83
2022/11/01 02:52:35;;;;;;;8.90;8.10;;;13.70;99.90;;;;;;6220522;23;20934;-82
2022/11/01 02:55:25;;;;;;;12.63;8.40;;;13.80;99.90;;;;;;6220662;23;20420;-82
2022/11/01 02:57:53;;;;;;;9.43;8.40;;;13.80;99.90;;;;;;6221533;23;20427;-82
2022/11/01 03:00:23;;;;;;;11.53;8.70;;;13.90;99.90;;;;;;6221436;23;20421;-83
2022/11/01 03:02:55;;;;;;;10.77;7.87;;;13.90;99.90;;;;;;6233058;23;20413;-82
2022/11/01 03:05:26;;;;;;;8.67;7.97;;;13.90;99.90;;;;;;6221440;23;20419;-82
2022/11/01 03:08:02;;;;;;;8.00;7.27;;;14.00;99.90;;;;;;6221955;23;20448;-82
2022/11/01 03:10:39;;;;;;;11.23;10.03;;;13.90;99.90;;;;;;6223633;23;20398;-83
2022/11/01 03:13:16;;;;;;;7.73;6.93;;;14.00;99.90;;;;;;6224293;23;20475;-83
2022/11/01 03:15:53;;;;;;;8.57;7.80;;;13.90;99.90;;;;;;6224036;23;20396;-82
2022/11/01 03:18:28;;;;;;;9.13;7.50;;;13.90;99.90;;;;;;6223916;23;20435;-82
2022/11/01 03:20:59;;;;;;;7.93;7.03;;;13.90;99.90;;;;;;6223850;23;20396;-82
2022/11/01 03:23:32;;;;;;;9.17;8.43;;;13.80;99.90;;;;;;6223198;23;20399;-83
2022/11/01 03:26:01;;;;;;;10.13;9.20;;;13.80;99.90;;;;;;6223143;23;20393;-83
2022/11/01 03:28:33;;;;;;;9.70;8.40;;;13.90;99.90;;;;;;6222006;23;20436;-83
2022/11/01 03:31:04;;;;;;;9.20;7.87;;;13.90;99.90;;;;;;6223260;23;20393;-82
2022/11/01 03:33:34;;;;;;;8.83;8.10;;;13.90;99.90;;;;;;6224378;23;20401;-83
2022/11/01 03:36:05;;;;;;;8.87;8.07;;;13.90;99.90;;;;;;6223029;23;20392;-83
2022/11/01 03:38:38;;;;;;;9.30;8.30;;;13.90;99.90;;;;;;6222509;23;20437;-83
2022/11/01 03:41:09;;;;;;;11.23;8.80;;;13.90;99.90;;;;;;6222532;23;20393;-83
2022/11/01 03:43:37;;;;;;;11.13;7.23;;;13.90;99.90;;;;;;6223930;23;20743;-82
2022/11/01 03:46:04;;;;;;;8.43;7.60;;;13.90;99.90;;;;;;6223427;23;20409;-82
2022/11/01 03:48:32;;;;;;;7.73;7.00;;;13.80;99.90;;;;;;6222847;23;20452;-82
2022/11/01 03:50:59;;;;;;;9.83;6.27;;;13.90;99.90;;;;;;6222227;23;20415;-82
2022/11/01 03:53:26;;;;;;;7.00;5.70;;;13.80;99.90;;;;;;6222373;23;20412;-83
2022/11/01 03:55:52;;;;;;;6.63;5.93;;;13.90;99.90;;;;;;6230078;23;20399;-80
2022/11/01 03:58:19;;;;;;;6.50;6.00;;;14.00;99.90;;;;;;6228306;23;20421;-82
2022/11/01 04:00:46;;;;;;;5.80;5.30;;;14.10;99.90;;;;;;6222651;23;20408;-82
2022/11/01 04:03:13;;;;;;;5.37;4.87;;;14.20;99.90;;;;;;6223125;23;20412;-83
2022/11/01 04:05:42;;;;;;;5.67;4.63;;;14.30;99.90;;;;;;6223296;23;20734;-82
2022/11/01 04:08:11;;;;;;;9.93;4.97;;;14.50;99.90;;;;;;6222689;23;20775;-83
2022/11/01 04:10:38;;;;;;;5.27;4.13;;;14.60;99.90;;;;;;6222496;23;20413;-82
2022/11/01 04:13:05;;;;;;;5.27;4.73;;;14.70;99.90;;;;;;6222205;23;20987;-82
2022/11/01 04:21:07;;;;;;;11.90;5.30;;;14.90;99.90;;;;;;6223116;23;20463;-83
2022/11/01 04:23:35;;;;;;;6.20;4.87;;;15.10;99.90;;;;;;6222170;23;20395;-83
2022/11/01 04:26:02;;;;;;;6.47;3.90;;;15.10;99.90;;;;;;6223330;23;20409;-83
2022/11/01 04:28:28;;;;;;;5.97;4.03;;;15.20;99.90;;;;;;6222372;23;20449;-83
2022/11/01 04:30:55;;;;;;;9.47;4.43;;;15.20;99.90;;;;;;6222481;23;20499;-83
2022/11/01 04:33:22;;;;;;;5.43;4.13;;;15.30;99.90;;;;;;6222398;23;20921;-82
2022/11/01 04:35:49;;;;;;;7.73;4.70;;;15.30;99.90;;;;;;6221466;23;20916;-82
2022/11/01 04:38:17;;;;;;;5.20;4.73;;;15.40;99.90;;;;;;6221529;23;20435;-83
2022/11/01 04:40:44;;;;;;;4.30;3.47;;;15.50;99.90;;;;;;6221996;23;20410;-83
2022/11/01 04:43:12;;;;;;;5.67;3.90;;;15.50;99.90;;;;;;6221411;23;20417;-83
2022/11/01 04:45:39;;;;;;;6.60;4.17;;;15.50;99.90;;;;;;6222256;23;20495;-82
2022/11/01 04:48:07;;;;;;;4.60;3.23;;;15.40;99.90;;;;;;6222950;23;20479;-82
2022/11/01 04:50:35;;;;;;;4.20;3.80;;;15.40;99.90;;;;;;6233379;23;20465;-82
2022/11/01 04:53:02;;;;;;;4.73;3.67;;;15.50;99.90;;;;;;6223277;23;20448;-81
2022/11/01 04:55:30;;;;;;;5.80;3.80;;;15.60;99.90;;;;;;6223107;23;20411;-83
2022/11/01 04:57:57;;;;;;;3.77;2.97;;;15.70;99.90;;;;;;6222482;23;20488;-83
2022/11/01 05:00:24;;;;;;;4.10;3.30;;;15.70;99.90;;;;;;6222587;23;20409;-83
2022/11/01 05:02:52;;;;;;;5.53;3.90;;;15.80;99.90;;;;;;6222972;23;20473;-83
2022/11/01 05:05:19;;;;;;;3.90;3.53;;;15.60;99.90;;;;;;6222810;23;20907;-82
2022/11/01 05:07:46;;;;;;;4.37;2.80;;;15.60;99.90;;;;;;6222488;23;20444;-82
2022/11/01 05:10:13;;;;;;;3.73;2.70;;;15.70;99.90;;;;;;6222833;23;20497;-83
2022/11/01 05:12:41;;;;;;;6.40;3.30;;;15.70;99.90;;;;;;6222012;23;20414;-82
2022/11/01 05:15:09;;;;;;;3.23;2.93;;;15.70;99.90;;;;;;6222227;23;20417;-82
2022/11/01 05:17:40;;;;;;;5.40;2.43;;;15.70;99.90;;;;;;6221750;23;20959;-83
2022/11/01 05:20:08;;;;;;;2.93;2.73;;;15.70;99.90;;;;;;6222519;23;20480;-82
2022/11/01 05:22:35;;;;;;;3.93;2.50;;;15.60;99.90;;;;;;6221989;23;20415;-83
2022/11/01 05:25:02;;;;;;;3.87;3.47;;;15.60;99.90;;;;;;6222032;23;20483;-83
2022/11/01 05:27:28;;;;;;;3.63;3.00;;;15.70;99.90;;;;;;6221478;23;20449;-82
2022/11/01 05:29:56;;;;;;;5.30;2.90;;;15.60;99.90;;;;;;6220786;23;20913;-82
2022/11/01 05:32:23;;;;;;;3.67;2.80;;;15.70;99.90;;;;;;6221806;23;20474;-83
2022/11/01 05:34:50;;;;;;;3.03;2.27;;;15.70;99.90;;;;;;6222574;23;20408;-83
2022/11/01 05:37:17;;;;;;;4.87;2.60;;;15.70;99.90;;;;;;6222181;23;20454;-82
2022/11/01 05:39:43;;;;;;;1.67;1.53;;;15.70;99.90;;;;;;6221514;23;20410;-82
2022/11/01 05:42:10;;;;;;;2.97;1.60;;;15.70;99.90;;;;;;6221594;23;20935;-83
2022/11/01 05:44:37;;;;;;;2.73;1.60;;;15.60;99.90;;;;;;6233689;23;20445;-82
2022/11/01 05:47:06;;;;;;;2.10;1.90;;;15.80;99.90;;;;;;6221927;23;20442;-83
2022/11/01 05:49:32;;;;;;;4.10;3.00;;;15.80;99.90;;;;;;6221959;23;20413;-83
2022/11/01 05:51:59;;;;;;;3.67;3.00;;;15.70;99.90;;;;;;6223692;23;20483;-81
2022/11/01 05:54:26;;;;;;;3.20;3.00;;;15.60;99.90;;;;;;6223225;23;20416;-83
2022/11/01 05:56:53;;;;;;;1.47;1.17;;;15.50;99.90;;;;;;6222149;23;20433;-83
2022/11/01 05:59:19;;;;;;;2.20;2.00;;;15.50;99.90;;;;;;6222006;23;20401;-82
2022/11/01 06:01:46;;;;;;;3.73;2.07;;;15.40;99.90;;;;;;6222192;23;20413;-83
2022/11/01 06:04:14;;;;;;;2.53;2.33;;;15.40;99.90;;;;;;6221686;23;20899;-83
2022/11/01 06:06:41;;;;;;;2.43;2.03;;;15.40;99.90;;;;;;6222020;23;20456;-83
2022/11/01 06:09:08;;;;;;;1.80;1.70;;;15.40;99.90;;;;;;6221541;23;20451;-83
2022/11/01 06:11:35;;;;;;;2.33;2.00;;;15.40;99.90;;;;;;6222148;23;20444;-85
2022/11/01 06:14:02;;;;;;;2.07;1.90;;;15.30;99.90;;;;;;6222550;23;20415;-82
2022/11/01 06:16:28;;;;;;;3.70;2.17;;;15.30;99.90;;;;;;6222805;23;20519;-83
2022/11/01 06:18:55;;;;;;;2.40;2.03;;;15.30;99.90;;;;;;6223125;23;20406;-83
2022/11/01 06:21:23;;;;;;;2.73;2.60;;;15.40;99.90;;;;;;6222680;23;20416;-82
2022/11/01 06:23:50;;;;;;;3.90;3.17;;;15.30;99.90;;;;;;6222126;23;20413;-83
2022/11/01 06:26:18;;;;;;;2.83;2.50;;;15.30;99.90;;;;;;6222034;23;20500;-84
2022/11/01 06:28:45;;;;;;;3.40;1.80;;;15.20;99.90;;;;;;6221221;23;20443;-83
2022/11/01 06:31:12;;;;;;;2.80;2.60;;;15.20;99.90;;;;;;6221881;23;20481;-83
2022/11/01 06:33:39;;;;;;;1.60;1.50;;;15.10;99.90;;;;;;6222940;23;20420;-83
2022/11/01 06:36:06;;;;;;;2.50;2.33;;;15.10;99.90;;;;;;6223183;23;20413;-84
2022/11/01 06:38:34;;;;;;;1.87;1.77;;;15.20;99.90;;;;;;6233831;23;20440;-84
2022/11/01 06:41:02;;;;;;;2.40;1.80;;;15.10;99.90;;;;;;6223582;23;20977;-85
2022/11/01 06:43:28;;;;;;;3.00;1.73;;;15.00;99.90;;;;;;6224336;23;20416;-84
2022/11/01 06:45:58;;;;;;;3.07;1.43;;;15.00;99.90;;;;;;6224693;23;20415;-84
2022/11/01 06:48:25;;;;;;;2.17;1.97;;;15.00;99.90;;;;;;6227676;23;20512;-82
2022/11/01 06:50:54;;;;;;;1.83;1.50;;;15.10;99.90;;;;;;6227567;23;20419;-82
2022/11/01 06:53:21;;;;;;;1.70;1.60;;;15.00;99.90;;;;;;6228496;23;20458;-82
2022/11/01 06:55:49;;;;;;;2.20;1.60;;;15.00;99.90;;;;;;6222024;23;20418;-81
2022/11/01 06:58:17;;;;;;;1.50;1.40;;;15.00;99.90;;;;;;6218033;23;21027;-82
2022/11/01 07:00:44;;;;;;;3.03;1.93;;;15.00;99.90;;;;;;6218958;23;20410;-82
2022/11/01 07:03:13;;;;;;;1.47;1.37;;;14.90;99.90;;;;;;6218840;23;20405;-82
2022/11/01 07:05:40;;;;;;;2.30;1.50;;;14.80;99.90;;;;;;6218449;23;20408;-82
2022/11/01 07:08:09;;;;;;;1.30;1.20;;;14.80;99.90;;;;;;6218635;23;20451;-84
2022/11/01 07:10:36;;;;;;;1.37;1.27;;;14.80;99.90;;;;;;6218689;23;20428;-83
2022/11/01 07:13:06;;;;;;;2.17;1.27;;;14.80;99.90;;;;;;6219114;23;20409;-82
2022/11/01 07:15:34;;;;;;;1.50;1.20;;;15.00;99.90;;;;;;6219453;23;20409;-82
2022/11/01 07:18:03;;;;;;;2.30;1.60;;;14.90;99.90;;;;;;6218163;23;20426;-82
2022/11/01 07:20:33;;;;;;;2.57;2.37;;;14.90;99.90;;;;;;6218244;23;20896;-82
2022/11/01 07:23:02;;;;;;;2.10;1.57;;;14.90;99.90;;;;;;6219260;23;20393;-82
2022/11/01 07:25:30;;;;;;;1.20;1.00;;;14.80;99.90;;;;;;6219772;23;20740;-82
2022/11/01 07:27:57;;;;;;;1.00;0.97;;;14.80;99.90;;;;;;6220555;23;20445;-82
2022/11/01 07:30:26;;;;;;;1.03;1.03;;;14.80;99.90;;;;;;6220014;23;20438;-83
2022/11/01 07:32:55;;;;;;;1.73;1.63;;;14.80;99.90;;;;;;6236258;23;20401;-82
2022/11/01 07:35:22;;;;;;;1.13;1.00;;;14.80;99.90;;;;;;6222981;23;20409;-82
2022/11/01 07:37:49;;;;;;;1.37;1.10;;;14.80;99.90;;;;;;6219850;23;20435;-82
2022/11/01 07:40:16;;;;;;;1.13;1.00;;;14.90;99.90;;;;;;6220648;23;20405;-82
2022/11/01 07:42:44;;;;;;;1.37;1.20;;;14.90;99.90;;;;;;6221335;23;20444;-82
2022/11/01 07:45:12;;;;;;;0.90;0.90;;;14.90;99.90;;;;;;6220711;23;20430;-82
2022/11/01 07:47:40;;;;;;;1.40;1.00;;;15.00;99.90;;;;;;6218771;23;20448;-83
2022/11/01 07:50:08;;;;;;;1.23;0.80;;;15.10;99.90;;;;;;6219805;23;20416;-81
2022/11/01 07:52:37;;;;;;;1.13;0.70;;;15.20;99.90;;;;;;6219258;23;20424;-81
2022/11/01 07:55:04;;;;;;;0.67;0.63;;;15.30;99.90;;;;;;6221111;23;20421;-80
2022/11/01 07:57:31;;;;;;;2.00;0.80;;;15.20;99.90;;;;;;6218393;23;20429;-81
2022/11/01 07:59:58;;;;;;;0.87;0.87;;;15.40;99.90;;;;;;6217249;23;20415;-80
2022/11/01 08:02:25;;;;;;;1.20;1.10;;;15.40;99.90;;;;;;6217761;23;20422;-81
2022/11/01 08:04:53;;;;;;;1.13;1.03;;;15.50;99.90;;;;;;6218058;23;20413;-81
2022/11/01 08:07:20;;;;;;;0.93;0.90;;;15.60;99.90;;;;;;6218291;23;20747;-81
2022/11/01 08:09:47;;;;;;;0.80;0.80;;;15.70;99.90;;;;;;6224974;23;20453;-82
2022/11/01 08:12:14;;;;;;;0.60;0.60;;;15.80;99.90;;;;;;6228865;23;20409;-83
2022/11/01 08:14:41;;;;;;;0.90;0.60;;;16.00;99.90;;;;;;6228283;23;20513;-82
2022/11/01 08:17:08;;;;;;;1.17;0.90;;;16.00;99.90;;;;;;6227202;23;20433;-82
2022/11/01 08:19:35;;;;;;;0.67;0.67;;;16.20;99.90;;;;;;6216930;23;20407;-83
2022/11/01 08:22:04;;;;;;;1.40;1.30;;;16.20;99.90;;;;;;6225505;23;20414;-83
2022/11/01 08:24:31;;;;;;;1.63;0.77;;;16.20;99.90;;;;;;6224275;23;20478;-83
2022/11/01 08:26:58;;;;;;;0.63;0.63;;;16.40;99.90;;;;;;6235276;23;20438;-83
2022/11/01 08:29:28;;;;;;;1.20;1.10;;;16.30;99.90;;;;;;6225601;23;20477;-84
2022/11/01 08:31:54;;;;;;;1.20;1.10;;;16.40;99.90;;;;;;6224325;23;20513;-79
2022/11/01 08:34:40;;;;;;;0.97;0.70;;;16.50;99.90;;;;;;6222113;23;20415;-84
2022/11/01 08:48:06;;;;;;;0.83;0.60;;;16.70;99.90;;;;;;6222990;23;20945;-84
2022/11/01 08:51:28;;;;;;;0.70;0.70;;;16.60;99.90;;;;;;6230081;23;20415;-84
2022/11/01 09:04:08;;;;;;;2.83;1.07;;;16.80;99.90;;;;;;6187326;23;20406;-79
2022/11/01 09:07:14;;;;;;;0.53;0.53;;;16.80;99.90;;;;;;6222770;23;20434;-82
2022/11/01 09:09:41;;;;;;;1.43;1.17;;;16.70;99.90;;;;;;6225290;23;20445;-81
2022/11/01 09:12:08;;;;;;;0.70;0.70;;;16.80;99.90;;;;;;6227117;23;20449;-81
2022/11/01 09:14:35;;;;;;;0.80;0.50;;;16.70;99.90;;;;;;6226065;23;20490;-80
2022/11/01 09:17:09;;;;;;;0.70;0.70;;;16.80;99.90;;;;;;6221237;23;20431;-81
2022/11/01 09:19:37;;;;;;;0.93;0.87;;;16.90;99.90;;;;;;6225618;23;20418;-78
2022/11/01 09:22:04;;;;;;;1.00;1.00;;;16.80;99.90;;;;;;6236058;23;20448;-80
2022/11/01 09:24:31;;;;;;;0.80;0.80;;;16.80;99.90;;;;;;6231609;23;20478;-81
2022/11/01 09:26:57;;;;;;;0.83;0.70;;;16.90;99.90;;;;;;6228474;23;20522;-81
2022/11/01 09:29:24;;;;;;;2.00;0.70;;;17.00;99.90;;;;;;6226644;23;20542;-80
2022/11/01 09:31:52;;;;;;;0.70;0.70;;;17.00;99.90;;;;;;6228592;23;20438;-80
2022/11/01 09:34:19;;;;;;;0.50;0.50;;;17.00;99.90;;;;;;6229343;23;20415;-80
2022/11/01 09:40:44;;;;;;;0.83;0.67;;;17.30;99.90;;;;;;6137934;23;20401;-83
2022/11/01 09:43:35;;;;;;;0.60;0.60;;;17.50;99.90;;;;;;6223038;23;20425;-82
2022/11/01 09:46:07;;;;;;;1.30;1.10;;;17.60;99.90;;;;;;6220237;23;20716;-85
2022/11/01 09:48:38;;;;;;;1.43;0.80;;;17.60;99.90;;;;;;6221738;23;20479;-84
2022/11/01 09:51:15;;;;;;;1.00;0.83;;;17.70;99.90;;;;;;6220330;23;20450;-82
2022/11/01 09:57:14;;;;;;;1.07;0.97;;;17.80;99.90;;;;;;6216936;23;20440;-82
2022/11/01 09:59:52;;;;;;;0.60;0.60;;;17.80;99.90;;;;;;6223467;23;20396;-85
2022/11/01 10:02:44;;;;;;;0.77;0.77;;;17.90;99.90;;;;;;6218859;23;20399;-79
2022/11/01 10:05:49;;;;;;;0.93;0.53;;;18.00;99.90;;;;;;6220047;23;20401;-80
2022/11/01 10:08:26;;;;;;;1.80;1.70;;;18.10;99.90;;;;;;6221950;23;20435;-79
2022/11/01 10:11:00;;;;;;;1.10;0.60;;;18.20;99.90;;;;;;6216978;23;20397;-81
2022/11/01 10:13:39;;;;;;;1.13;0.60;;;18.30;99.90;;;;;;6221739;23;20402;-78
2022/11/01 10:19:47;;;;;;;0.93;0.80;;;18.60;99.90;;;;;;6232408;23;20416;-84
2022/11/01 10:29:59;;;;;;;1.73;0.70;;;18.80;99.90;;;;;;6130153;23;20442;-84
2022/11/01 10:32:40;;;;;;;1.30;0.90;;;18.70;99.90;;;;;;6096404;23;20424;-84
2022/11/01 10:35:14;;;;;;;1.67;0.90;;;18.90;99.90;;;;;;6125111;23;20406;-79
2022/11/01 10:37:46;;;;;;;0.73;0.70;;;19.00;99.90;;;;;;6200849;23;20428;-79
2022/11/01 10:51:02;;;;;;;1.47;0.90;;;18.70;99.90;;;;;;5962061;24;20433;-84
2022/11/01 10:53:48;;;;;;;0.70;0.70;;;18.50;99.90;;;;;;5996383;24;20491;-79
2022/11/01 10:56:40;;;;;;;1.20;0.80;;;18.20;99.90;;;;;;6082719;23;20443;-84
2022/11/01 10:59:19;;;;;;;1.23;1.00;;;18.10;99.90;;;;;;6102661;23;20865;-82
2022/11/01 11:01:48;;;;;;;1.30;1.20;;;17.80;99.90;;;;;;6102294;23;20400;-84
2022/11/01 11:04:28;;;;;;;0.90;0.90;;;17.70;99.90;;;;;;6098209;23;20507;-84
2022/11/01 11:13:10;;;;;;;1.00;0.90;;;17.70;99.90;;;;;;5134848;28;20426;-83
2022/11/01 11:15:43;;;;;;;1.47;0.90;;;17.60;99.90;;;;;;5108608;28;20971;-80
2022/11/01 11:18:19;;;;;;;0.80;0.80;;;17.70;99.90;;;;;;5134956;28;20455;-80
2022/11/01 11:20:50;;;;;;;3.03;1.63;;;17.80;99.90;;;;;;5132081;28;20451;-80
2022/11/01 11:23:19;;;;;;;1.00;1.00;;;18.00;99.90;;;;;;5135187;28;20440;-79
2022/11/01 11:25:49;;;;;;;0.90;0.67;;;18.00;99.90;;;;;;5128427;28;20565;-80
2022/11/01 11:28:24;;;;;;;1.07;1.07;;;18.10;99.90;;;;;;5114394;28;20489;-80
2022/11/01 11:30:51;;;;;;;2.10;1.73;;;18.10;99.90;;;;;;5121548;28;20462;-80
2022/11/01 11:33:18;;;;;;;1.87;1.10;;;18.20;99.90;;;;;;5132551;28;20453;-80
2022/11/01 11:35:53;;;;;;;2.10;0.90;;;18.60;99.90;;;;;;5122517;28;20445;-80
2022/11/01 11:38:40;;;;;;;2.30;1.70;;;19.00;99.90;;;;;;5113597;28;20472;-82
2022/11/01 11:41:11;;;;;;;0.90;0.90;;;19.30;99.90;;;;;;5116742;28;21038;-81
2022/11/01 11:43:44;;;;;;;0.93;0.80;;;19.20;99.50;;;;;;5124018;28;20458;-86
2022/11/01 11:46:44;;;;;;;1.17;1.07;;;19.20;99.70;;;;;;5116356;28;20445;-86
2022/11/01 11:52:50;;;;;;;0.83;0.83;;;18.80;99.40;;;;;;5113162;28;20430;-84
2022/11/01 11:58:33;;;;;;;2.07;1.00;;;18.10;99.90;;;;;;5126684;27;20939;-83
2022/11/01 12:01:10;;;;;;;1.00;1.00;;;18.10;99.90;;;;;;5092391;28;20519;-84
2022/11/01 12:03:52;;;;;;;1.57;1.10;;;18.00;99.90;;;;;;5086197;28;20449;-84
2022/11/01 12:06:41;;;;;;;1.43;1.33;;;18.00;99.90;;;;;;5091517;28;21194;-84
2022/11/01 12:09:48;;;;;;;1.43;1.20;;;17.90;99.90;;;;;;5110797;28;20571;-84
2022/11/01 12:12:29;;;;;;;1.97;0.90;;;17.90;99.90;;;;;;5111922;28;20459;-84
2022/11/01 12:19:07;;;;;;;3.73;1.10;;;17.80;99.90;;;;;;5112841;28;20467;-85
2022/11/01 12:22:10;;;;;;;1.53;1.40;;;17.90;99.90;;;;;;5098328;28;20473;-84
2022/11/01 12:25:16;;;;;;;2.17;2.00;;;17.80;99.90;;;;;;5117230;28;20462;-84
2022/11/01 12:37:46;;;;;;;3.93;1.10;;;17.90;99.90;;;;;;4997796;28;20537;-79
2022/11/01 12:40:18;;;;;;;1.27;1.17;;;17.90;99.90;;;;;;5071684;28;20456;-81
2022/11/01 12:42:57;;;;;;;1.13;1.03;;;18.70;99.90;;;;;;5106145;28;20523;-83
2022/11/01 12:45:46;;;;;;;1.30;1.30;;;19.70;99.90;;;;;;5098949;28;20454;-83
2022/11/01 12:48:18;;;;;;;1.90;0.90;;;20.60;98.60;;;;;;5109603;28;20485;-83
2022/11/01 12:50:50;;;;;;;1.33;1.07;;;20.80;97.40;;;;;;5117645;28;20534;-83
2022/11/01 12:53:23;;;;;;;1.00;1.00;;;20.50;96.80;;;;;;5098926;28;20888;-83
2022/11/01 12:55:50;;;;;;;1.40;1.30;;;20.30;96.60;;;;;;5098726;28;20506;-83
2022/11/01 12:58:19;;;;;;;2.20;1.30;;;20.80;96.90;;;;;;5109125;28;20518;-83
2022/11/01 13:01:11;;;;;;;1.17;1.07;;;21.70;96.00;;;;;;5106346;28;20893;-83
2022/11/01 13:03:46;;;;;;;2.20;1.47;;;22.20;94.30;;;;;;5116232;28;20509;-82
2022/11/01 13:06:28;;;;;;;1.10;1.00;;;22.40;93.40;;;;;;5114873;28;20474;-84
2022/11/01 13:09:02;;;;;;;2.40;1.00;;;22.40;92.50;;;;;;5118412;28;20487;-82
2022/11/01 13:11:40;;;;;;;1.10;0.90;;;21.50;92.80;;;;;;5105003;28;20821;-82
2022/11/01 13:14:24;;;;;;;0.80;0.80;;;21.00;93.80;;;;;;5105004;28;20468;-84
2022/11/01 13:16:59;;;;;;;2.00;1.90;;;21.00;94.90;;;;;;5124885;28;20474;-85
2022/11/01 13:20:30;;;;;;;1.57;0.97;;;20.90;94.20;;;;;;5100982;28;20443;-85
2022/11/01 13:23:07;;;;;;;1.37;1.07;;;21.00;94.80;;;;;;5107631;28;20538;-83
2022/11/01 13:25:41;;;;;;;0.70;0.70;;;21.40;94.60;;;;;;5120453;28;20456;-84
2022/11/01 13:28:22;;;;;;;2.00;1.47;;;21.00;93.40;;;;;;5111652;28;20916;-84
2022/11/01 13:34:17;;;;;;;0.80;0.80;;;21.20;94.10;;;;;;5119940;28;20458;-84
2022/11/01 13:36:53;;;;;;;3.43;1.33;;;20.90;94.70;;;;;;5111336;28;20478;-84
2022/11/01 13:40:06;;;;;;;3.73;1.47;;;20.80;96.20;;;;;;5096701;28;20858;-86
2022/11/01 13:42:53;;;;;;;2.97;1.70;;;20.90;97.00;;;;;;5118882;28;20442;-84
2022/11/01 13:45:47;;;;;;;1.73;1.63;;;20.60;96.90;;;;;;5110018;27;21233;-84
2022/11/01 13:48:27;;;;;;;2.07;1.97;;;20.40;97.20;;;;;;5077319;28;20539;-83
2022/11/01 13:51:08;;;;;;;3.03;1.60;;;20.20;97.80;;;;;;5101554;28;20438;-80
2022/11/01 13:53:40;;;;;;;1.97;1.23;;;20.50;97.90;;;;;;5095852;28;20451;-80
2022/11/01 13:56:12;;;;;;;5.30;1.37;;;21.10;96.90;;;;;;5092530;28;20500;-80
2022/11/01 13:58:40;;;;;;;2.80;1.70;;;21.30;96.30;;;;;;5115849;28;20451;-81
2022/11/01 14:01:34;;;;;;;3.00;1.93;;;21.70;96.30;;;;;;5129486;28;20479;-81
2022/11/01 14:04:22;;;;;;;1.47;1.37;;;21.90;95.00;;;;;;5115389;28;20474;-81
2022/11/01 14:07:14;;;;;;;2.77;1.60;;;21.60;95.70;;;;;;5105023;27;20474;-84
2022/11/01 14:09:46;;;;;;;2.10;1.70;;;21.60;95.60;;;;;;5113649;28;20483;-81
2022/11/01 14:12:35;;;;;;;2.20;2.00;;;21.30;95.60;;;;;;5115942;28;20450;-81
2022/11/01 14:15:16;;;;;;;2.07;1.60;;;21.20;96.10;;;;;;5116632;28;20453;-81
2022/11/01 14:18:06;;;;;;;1.00;0.90;;;21.00;96.10;;;;;;5115910;28;20982;-81
2022/11/01 14:20:42;;;;;;;1.97;1.40;;;20.80;96.10;;;;;;5116059;28;20458;-81
2022/11/01 14:23:51;;;;;;;2.97;1.60;;;20.80;96.10;;;;;;5117059;28;20449;-81
2022/11/01 14:26:36;;;;;;;2.93;1.60;;;21.00;96.50;;;;;;5056826;28;20495;-82
2022/11/01 14:29:07;;;;;;;1.60;1.40;;;21.40;96.30;;;;;;5117400;28;20486;-81
2022/11/01 14:31:36;;;;;;;2.40;1.90;;;21.50;95.60;;;;;;5117655;28;20450;-80
2022/11/01 14:34:07;;;;;;;3.63;2.00;;;21.30;95.30;;;;;;5118385;28;20533;-81
2022/11/01 14:36:37;;;;;;;2.87;2.13;;;21.30;95.60;;;;;;5118291;28;20841;-80